createdAt,value
2023-04-16T00:00:41.829Z,94892.44
2023-04-16T00:03:09.022Z,94895.75
2023-04-16T00:05:36.077Z,94902.81
2023-04-16T00:08:02.457Z,94895.75
2023-04-16T00:10:28.928Z,94894.63
2023-04-16T00:12:55.429Z,94892.66
2023-04-16T00:15:21.805Z,94891.53
2023-04-16T00:17:48.192Z,94881.84
2023-04-16T00:20:14.563Z,94890.41
2023-04-16T00:22:41.172Z,94890.50
2023-04-16T00:25:07.948Z,94886.28
2023-04-16T00:27:34.376Z,94888.69
2023-04-16T00:30:00.854Z,94891.50
2023-04-16T00:32:27.262Z,94889.81
2023-04-16T00:34:53.741Z,94885.56
2023-04-16T00:37:20.445Z,94887.88
2023-04-16T00:39:46.880Z,94881.13
2023-04-16T00:42:13.339Z,94880.56
2023-04-16T00:44:39.731Z,94878.19
2023-04-16T00:47:06.074Z,94880.22
2023-04-16T00:49:32.531Z,94874.34
2023-04-16T00:51:58.875Z,94881.22
2023-04-16T00:54:25.308Z,94882.72
2023-04-16T00:56:52.409Z,94874.69
2023-04-16T00:59:18.784Z,94877.97
2023-04-16T01:01:45.304Z,94875.06
2023-04-16T01:04:12.396Z,94881.66
2023-04-16T01:06:38.961Z,94891.94
2023-04-16T01:09:06.035Z,94885.34
2023-04-16T01:11:32.636Z,94884.50
2023-04-16T01:13:59.143Z,94882.56
2023-04-16T01:16:25.539Z,94883.22
2023-04-16T01:18:52.065Z,94875.34
2023-04-16T01:21:18.558Z,94869.38
2023-04-16T01:23:45.098Z,94868.25
2023-04-16T01:26:13.688Z,94878.25
2023-04-16T01:28:40.268Z,94875.97
2023-04-16T01:31:06.880Z,94879.63
2023-04-16T01:33:34.255Z,94873.38
2023-04-16T01:36:00.658Z,94876.00
2023-04-16T01:38:27.329Z,94880.31
2023-04-16T01:40:53.732Z,94869.63
2023-04-16T01:43:22.363Z,94871.13
2023-04-16T01:45:48.748Z,94876.38
2023-04-16T01:48:15.264Z,94877.72
2023-04-16T01:50:41.692Z,94885.28
2023-04-16T01:53:09.118Z,94890.69
2023-04-16T01:55:36.494Z,94885.44
2023-04-16T01:58:02.898Z,94888.28
2023-04-16T02:00:29.263Z,94886.72
2023-04-16T02:02:55.793Z,94894.91
2023-04-16T02:05:22.341Z,94899.41
2023-04-16T02:07:48.785Z,94894.28
2023-04-16T02:10:15.247Z,94896.41
2023-04-16T02:12:41.601Z,94895.28
2023-04-16T02:15:09.067Z,94897.75
2023-04-16T02:17:35.574Z,94900.09
2023-04-16T02:20:02.329Z,94898.28
2023-04-16T02:22:28.782Z,94895.34
2023-04-16T02:24:58.070Z,94895.03
2023-04-16T02:27:24.402Z,94896.38
2023-04-16T02:29:50.775Z,94897.84
2023-04-16T02:32:19.497Z,94898.84
2023-04-16T02:34:48.380Z,94900.47
2023-04-16T02:37:15.122Z,94904.75
2023-04-16T02:39:43.096Z,94898.88
2023-04-16T02:42:09.494Z,94902.19
2023-04-16T02:44:36.015Z,94897.94
2023-04-16T02:47:02.479Z,94898.25
2023-04-16T02:49:29.567Z,94903.88
2023-04-16T02:51:55.975Z,94907.69
2023-04-16T02:54:22.428Z,94906.34
2023-04-16T02:56:48.931Z,94911.34
2023-04-16T02:59:15.486Z,94911.00
2023-04-16T03:01:42.020Z,94908.06
2023-04-16T03:04:08.456Z,94908.72
2023-04-16T03:06:35.395Z,94909.41
2023-04-16T03:09:01.817Z,94911.19
2023-04-16T03:11:28.286Z,94905.09
2023-04-16T03:13:55.252Z,94907.22
2023-04-16T03:16:21.897Z,94913.28
2023-04-16T03:18:54.269Z,94911.31
2023-04-16T03:21:20.834Z,94913.31
2023-04-16T03:23:48.731Z,94909.34
2023-04-16T03:26:16.230Z,94909.56
2023-04-16T03:28:42.692Z,94911.25
2023-04-16T03:31:09.328Z,94923.56
2023-04-16T03:33:35.717Z,94915.66
2023-04-16T03:36:02.088Z,94913.56
2023-04-16T03:38:28.478Z,94914.94
2023-04-16T03:40:54.915Z,94923.16
2023-04-16T03:43:21.359Z,94917.91
2023-04-16T03:45:48.260Z,94916.44
2023-04-16T03:48:14.634Z,94926.03
2023-04-16T03:50:43.429Z,94916.03
2023-04-16T03:53:09.889Z,94920.97
2023-04-16T03:55:36.269Z,94921.13
2023-04-16T03:58:02.855Z,94926.22
2023-04-16T04:00:29.253Z,94920.97
2023-04-16T04:02:55.895Z,94924.59
2023-04-16T04:05:22.788Z,94912.56
2023-04-16T04:07:49.174Z,94917.38
2023-04-16T04:10:15.998Z,94915.72
2023-04-16T04:12:42.478Z,94915.72
2023-04-16T04:15:08.844Z,94914.69
2023-04-16T04:17:35.321Z,94914.28
2023-04-16T04:20:02.277Z,94913.06
2023-04-16T04:22:28.829Z,94910.06
2023-04-16T04:24:55.273Z,94919.41
2023-04-16T04:27:21.740Z,94923.00
2023-04-16T04:29:48.182Z,94916.25
2023-04-16T04:32:14.541Z,94922.03
2023-04-16T04:34:41.361Z,94919.25
2023-04-16T04:37:07.853Z,94920.41
2023-04-16T04:39:34.312Z,94921.91
2023-04-16T04:42:00.755Z,94919.13
2023-04-16T04:44:27.455Z,94923.25
2023-04-16T04:46:53.862Z,94923.09
2023-04-16T04:49:20.304Z,94926.38
2023-04-16T04:51:46.682Z,94921.13
2023-04-16T04:54:13.020Z,94928.84
2023-04-16T04:56:39.415Z,94920.97
2023-04-16T04:59:05.848Z,94923.56
2023-04-16T05:01:32.722Z,94925.38
2023-04-16T05:04:03.443Z,94923.72
2023-04-16T05:06:30.092Z,94927.50
2023-04-16T05:08:56.581Z,94926.22
2023-04-16T05:11:24.453Z,94929.53
2023-04-16T05:13:50.929Z,94924.94
2023-04-16T05:16:17.419Z,94925.41
2023-04-16T05:18:44.106Z,94933.16
2023-04-16T05:21:10.592Z,94932.16
2023-04-16T05:23:36.957Z,94932.81
2023-04-16T05:26:03.681Z,94935.44
2023-04-16T05:28:30.341Z,94941.38
2023-04-16T05:30:56.753Z,94943.88
2023-04-16T05:33:23.204Z,94940.91
2023-04-16T05:35:49.695Z,94946.84
2023-04-16T05:38:16.150Z,94945.19
2023-04-16T05:40:42.490Z,94950.13
2023-04-16T05:43:08.934Z,94950.63
2023-04-16T05:45:35.325Z,94935.84
2023-04-16T05:48:01.804Z,94944.56
2023-04-16T05:50:29.280Z,94944.72
2023-04-16T05:52:55.728Z,94939.63
2023-04-16T05:55:24.236Z,94943.38
2023-04-16T05:57:50.570Z,94943.53
2023-04-16T06:00:17.304Z,94948.78
2023-04-16T06:02:43.749Z,94946.34
2023-04-16T06:05:10.190Z,94948.97
2023-04-16T06:07:36.736Z,94950.25
2023-04-16T06:10:03.336Z,94947.88
2023-04-16T06:12:29.709Z,94952.50
2023-04-16T06:14:56.089Z,94948.47
2023-04-16T06:17:22.536Z,94959.31
2023-04-16T06:19:48.925Z,94948.78
2023-04-16T06:22:15.392Z,94952.59
2023-04-16T06:24:41.763Z,94954.56
2023-04-16T06:27:08.150Z,94956.22
2023-04-16T06:29:41.174Z,94956.53
2023-04-16T06:32:10.705Z,94958.47
2023-04-16T06:34:37.660Z,94959.97
2023-04-16T06:37:04.479Z,94958.66
2023-04-16T06:39:31.193Z,94962.09
2023-04-16T06:41:57.615Z,94962.78
2023-04-16T06:44:24.114Z,94957.84
2023-04-16T06:46:50.509Z,94967.09
2023-04-16T06:49:16.931Z,94967.44
2023-04-16T06:51:43.333Z,94971.59
2023-04-16T06:54:09.783Z,94971.09
2023-04-16T06:56:37.343Z,94972.09
2023-04-16T06:59:04.056Z,94976.69
2023-04-16T07:01:30.790Z,94983.44
2023-04-16T07:03:59.861Z,94983.28
2023-04-16T07:06:27.326Z,94990.34
2023-04-16T07:08:53.941Z,94982.56
2023-04-16T07:11:20.502Z,94974.16
2023-04-16T07:13:49.229Z,94981.22
2023-04-16T07:16:15.966Z,94974.31
2023-04-16T07:18:43.394Z,94981.09
2023-04-16T07:21:16.167Z,94993.56
2023-04-16T07:23:44.297Z,94992.94
2023-04-16T07:26:12.114Z,94985.94
2023-04-16T07:28:39.636Z,94982.19
2023-04-16T07:31:08.605Z,94986.06
2023-04-16T07:33:35.087Z,94986.75
2023-04-16T07:36:02.850Z,94991.50
2023-04-16T07:38:29.228Z,94990.41
2023-04-16T07:43:36.722Z,94990.47
2023-04-16T07:46:03.190Z,94992.09
2023-04-16T07:48:33.137Z,95003.31
2023-04-16T07:51:00.552Z,95000.22
2023-04-16T07:53:27.033Z,95008.13
2023-04-16T07:55:57.219Z,95006.81
2023-04-16T07:58:29.122Z,95007.16
2023-04-16T08:00:55.889Z,95011.41
2023-04-16T08:03:27.651Z,95015.38
2023-04-16T08:05:58.034Z,95023.13
2023-04-16T08:08:26.832Z,95018.41
2023-04-16T08:10:53.233Z,95023.03
2023-04-16T08:13:21.717Z,95019.22
2023-04-16T08:15:48.104Z,95031.25
2023-04-16T08:18:14.604Z,95025.81
2023-04-16T08:20:41.052Z,95024.69
2023-04-16T08:23:07.581Z,95028.66
2023-04-16T08:25:34.882Z,95026.38
2023-04-16T08:28:01.273Z,95039.38
2023-04-16T08:30:27.646Z,95034.09
2023-04-16T08:32:54.087Z,95034.78
2023-04-16T08:35:20.978Z,95039.88
2023-04-16T08:37:47.321Z,95045.63
2023-04-16T08:40:14.367Z,95046.97
2023-04-16T08:42:42.730Z,95048.16
2023-04-16T08:45:11.424Z,95048.16
2023-04-16T08:47:38.278Z,95047.34
2023-04-16T08:50:04.735Z,95052.28
2023-04-16T08:52:38.710Z,95051.97
2023-04-16T08:55:07.186Z,95051.47
2023-04-16T08:57:34.631Z,95052.81
2023-04-16T09:00:01.105Z,95052.13
2023-04-16T09:02:27.623Z,95044.38
2023-04-16T09:04:54.422Z,95050.81
2023-04-16T09:07:21.312Z,95049.16
2023-04-16T09:09:49.780Z,95053.13
2023-04-16T09:12:16.171Z,95059.72
2023-04-16T09:14:42.543Z,95055.94
2023-04-16T09:17:08.958Z,95051.63
2023-04-16T09:19:35.345Z,95054.63
2023-04-16T09:22:01.754Z,95055.41
2023-04-16T09:24:28.392Z,95056.41
2023-04-16T09:26:54.988Z,95055.75
2023-04-16T09:29:21.472Z,95060.22
2023-04-16T09:31:49.367Z,95058.22
2023-04-16T09:34:15.800Z,95065.47
2023-04-16T09:36:42.145Z,95066.31
2023-04-16T09:39:08.704Z,95064.34
2023-04-16T09:41:35.241Z,95064.66
2023-04-16T09:44:01.636Z,95066.78
2023-04-16T09:46:28.270Z,95063.19
2023-04-16T09:48:56.796Z,95061.69
2023-04-16T09:51:23.192Z,95063.50
2023-04-16T09:53:49.571Z,95065.16
2023-04-16T09:56:16.233Z,95065.16
2023-04-16T09:58:44.974Z,95069.25
2023-04-16T10:01:12.382Z,95066.59
2023-04-16T10:03:39.054Z,95073.19
2023-04-16T10:06:05.807Z,95074.22
2023-04-16T10:08:32.311Z,95073.72
2023-04-16T10:10:58.719Z,95071.88
2023-04-16T10:13:25.105Z,95074.88
2023-04-16T10:15:52.467Z,95071.06
2023-04-16T10:18:19.060Z,95071.06
2023-04-16T10:20:45.447Z,95071.84
2023-04-16T10:23:11.786Z,95075.47
2023-04-16T10:25:39.181Z,95074.31
2023-04-16T10:28:05.532Z,95072.44
2023-04-16T10:30:32.096Z,95072.97
2023-04-16T10:33:00.558Z,95077.38
2023-04-16T10:35:27.255Z,95074.34
2023-04-16T10:37:53.876Z,95070.50
2023-04-16T10:40:20.319Z,95074.63
2023-04-16T10:42:46.674Z,95074.38
2023-04-16T10:45:13.067Z,95075.00
2023-04-16T10:47:39.531Z,95072.72
2023-04-16T10:50:05.961Z,95078.00
2023-04-16T10:52:32.407Z,95076.00
2023-04-16T10:54:58.749Z,95079.81
2023-04-16T10:57:25.117Z,95077.06
2023-04-16T10:59:51.470Z,95071.94
2023-04-16T11:02:18.209Z,95071.81
2023-04-16T11:04:45.223Z,95070.81
2023-04-16T11:07:11.730Z,95070.81
2023-04-16T11:09:39.568Z,95070.00
2023-04-16T11:12:05.955Z,95068.34
2023-04-16T11:14:32.307Z,95068.34
2023-04-16T11:16:59.186Z,95072.75
2023-04-16T11:19:25.813Z,95078.03
2023-04-16T11:21:52.163Z,95085.28
2023-04-16T11:24:18.706Z,95079.63
2023-04-16T11:26:45.069Z,95078.44
2023-04-16T11:29:11.651Z,95080.88
2023-04-16T11:31:38.213Z,95082.69
2023-04-16T11:34:04.748Z,95080.88
2023-04-16T11:36:33.768Z,95083.22
2023-04-16T11:39:01.314Z,95087.19
2023-04-16T11:41:28.813Z,95085.06
2023-04-16T11:43:55.339Z,95080.94
2023-04-16T11:46:27.374Z,95083.94
2023-04-16T11:48:57.324Z,95084.44
2023-04-16T11:51:24.353Z,95086.81
2023-04-16T11:53:51.822Z,95088.63
2023-04-16T11:56:18.226Z,95086.66
2023-04-16T11:58:44.597Z,95092.44
2023-04-16T12:01:11.252Z,95084.69
2023-04-16T12:03:37.959Z,95084.31
2023-04-16T12:06:04.546Z,95082.88
2023-04-16T12:08:30.934Z,95089.78
2023-04-16T12:10:57.398Z,95084.84
2023-04-16T12:13:23.789Z,95086.00
2023-04-16T12:15:50.624Z,95081.38
2023-04-16T12:18:17.106Z,95088.28
2023-04-16T12:20:43.533Z,95085.00
2023-04-16T12:23:10.302Z,95088.28
2023-04-16T12:25:37.014Z,95084.00
2023-04-16T12:28:03.405Z,95086.66
2023-04-16T12:30:29.915Z,95089.97
2023-04-16T12:32:57.970Z,95089.63
2023-04-16T12:35:25.455Z,95086.84
2023-04-16T12:37:51.806Z,95087.97
2023-04-16T12:40:18.314Z,95086.00
2023-04-16T12:42:44.703Z,95090.13
2023-04-16T12:45:12.218Z,95093.94
2023-04-16T12:47:39.356Z,95090.94
2023-04-16T12:50:08.598Z,95089.97
2023-04-16T12:52:35.207Z,95090.13
2023-04-16T12:55:01.672Z,95089.50
2023-04-16T12:57:28.238Z,95094.59
2023-04-16T12:59:55.631Z,95089.13
2023-04-16T13:02:24.419Z,95092.41
2023-04-16T13:04:51.114Z,95090.78
2023-04-16T13:07:18.006Z,95092.94
2023-04-16T13:09:45.421Z,95086.66
2023-04-16T13:12:11.886Z,95088.16
2023-04-16T13:14:38.379Z,95083.69
2023-04-16T13:17:04.752Z,95086.50
2023-04-16T13:19:31.087Z,95087.66
2023-04-16T13:21:58.555Z,95077.94
2023-04-16T13:24:25.840Z,95084.03
2023-04-16T13:26:52.322Z,95085.34
2023-04-16T13:29:18.796Z,95089.47
2023-04-16T13:31:45.248Z,95084.69
2023-04-16T13:34:11.683Z,95086.66
2023-04-16T13:36:38.073Z,95087.50
2023-04-16T13:39:05.513Z,95086.66
2023-04-16T13:41:32.045Z,95089.53
2023-04-16T13:43:58.596Z,95099.28
2023-04-16T13:46:25.273Z,95099.13
2023-04-16T13:48:51.852Z,95094.00
2023-04-16T13:51:18.412Z,95098.28
2023-04-16T13:53:44.770Z,95101.56
2023-04-16T13:56:11.305Z,95096.09
2023-04-16T13:58:37.725Z,95100.53
2023-04-16T14:01:04.292Z,95104.03
2023-04-16T14:03:30.694Z,95103.88
2023-04-16T14:05:57.097Z,95109.94
2023-04-16T14:08:28.513Z,95107.78
2023-04-16T14:10:55.749Z,95116.06
2023-04-16T14:13:22.154Z,95108.00
2023-04-16T14:15:48.910Z,95113.94
2023-04-16T14:18:15.339Z,95116.75
2023-04-16T14:20:44.128Z,95111.81
2023-04-16T14:23:10.486Z,95119.72
2023-04-16T14:25:37.038Z,95113.94
2023-04-16T14:28:03.387Z,95113.59
2023-04-16T14:30:29.949Z,95118.22
2023-04-16T14:32:56.705Z,95114.28
2023-04-16T14:35:23.224Z,95116.44
2023-04-16T14:37:56.873Z,95102.75
2023-04-16T14:40:25.738Z,95106.72
2023-04-16T14:42:59.440Z,95109.84
2023-04-16T14:45:26.228Z,95116.59
2023-04-16T14:47:52.752Z,95118.41
2023-04-16T14:50:19.188Z,95111.81
2023-04-16T14:52:48.435Z,95109.84
2023-04-16T14:55:14.767Z,95105.22
2023-04-16T14:57:41.400Z,95103.56
2023-04-16T15:00:07.816Z,95099.94
2023-04-16T15:02:34.470Z,95097.31
2023-04-16T15:05:03.396Z,95104.06
2023-04-16T15:07:29.799Z,95104.56
2023-04-16T15:09:58.199Z,95113.44
2023-04-16T15:12:29.883Z,95109.00
2023-04-16T15:14:56.394Z,95097.94
2023-04-16T15:17:23.143Z,95101.25
2023-04-16T15:19:49.687Z,95101.91
2023-04-16T15:22:16.133Z,95099.75
2023-04-16T15:24:42.755Z,95103.88
2023-04-16T15:27:11.188Z,95106.16
2023-04-16T15:29:38.696Z,95108.66
2023-04-16T15:32:05.588Z,95107.00
2023-04-16T15:34:32.306Z,95107.00
2023-04-16T15:36:59.140Z,95104.19
2023-04-16T15:39:25.644Z,95113.13
2023-04-16T15:42:01.164Z,95120.72
2023-04-16T15:44:28.836Z,95116.75
2023-04-16T15:46:57.394Z,95115.28
2023-04-16T15:49:23.915Z,95120.03
2023-04-16T15:51:50.488Z,95115.13
2023-04-16T15:54:16.972Z,95117.75
2023-04-16T15:56:43.312Z,95115.78
2023-04-16T15:59:13.090Z,95110.66
2023-04-16T16:01:39.558Z,95118.72
2023-04-16T16:04:06.058Z,95113.13
2023-04-16T16:06:32.464Z,95119.06
2023-04-16T16:08:58.812Z,95124.00
2023-04-16T16:11:25.160Z,95118.72
2023-04-16T16:13:51.542Z,95120.69
2023-04-16T16:16:18.011Z,95117.41
2023-04-16T16:18:44.588Z,95124.50
2023-04-16T16:21:11.367Z,95124.50
2023-04-16T16:23:37.757Z,95128.13
2023-04-16T16:26:04.169Z,95136.19
2023-04-16T16:28:30.581Z,95137.84
2023-04-16T16:30:59.775Z,95136.88
2023-04-16T16:33:26.170Z,95135.19
2023-04-16T16:35:52.558Z,95137.03
2023-04-16T16:38:20.188Z,95139.81
2023-04-16T16:40:47.809Z,95139.81
2023-04-16T16:43:14.402Z,95141.78
2023-04-16T16:45:40.826Z,95139.97
2023-04-16T16:48:07.254Z,95140.16
2023-04-16T16:50:33.677Z,95141.28
2023-04-16T16:53:01.112Z,95146.41
2023-04-16T16:55:27.491Z,95138.81
2023-04-16T16:57:53.999Z,95142.13
2023-04-16T17:00:20.473Z,95137.16
2023-04-16T17:02:47.401Z,95139.97
2023-04-16T17:05:13.971Z,95138.81
2023-04-16T17:07:40.715Z,95140.47
2023-04-16T17:10:07.620Z,95137.81
2023-04-16T17:12:34.118Z,95136.84
2023-04-16T17:15:00.715Z,95143.63
2023-04-16T17:17:27.239Z,95143.44
2023-04-16T17:19:54.934Z,95144.13
2023-04-16T17:22:21.862Z,95145.75
2023-04-16T17:24:48.734Z,95150.06
2023-04-16T17:27:15.430Z,95148.06
2023-04-16T17:29:41.979Z,95147.41
2023-04-16T17:32:08.500Z,95142.13
2023-04-16T17:34:35.422Z,95146.75
2023-04-16T17:37:02.902Z,95145.91
2023-04-16T17:39:29.603Z,95150.69
2023-04-16T17:41:58.663Z,95150.69
2023-04-16T17:44:26.449Z,95151.66
2023-04-16T17:46:54.683Z,95148.22
2023-04-16T17:49:21.145Z,95152.84
2023-04-16T17:51:48.054Z,95149.69
2023-04-16T17:54:14.727Z,95151.53
2023-04-16T17:56:42.234Z,95158.25
2023-04-16T17:59:08.881Z,95158.13
2023-04-16T18:01:35.324Z,95157.94
2023-04-16T18:04:02.075Z,95159.59
2023-04-16T18:06:30.830Z,95158.63
2023-04-16T18:08:57.505Z,95154.16
2023-04-16T18:11:23.998Z,95152.34
2023-04-16T18:13:50.386Z,95157.47
2023-04-16T18:16:16.984Z,95160.91
2023-04-16T18:18:43.383Z,95155.16
2023-04-16T18:21:09.817Z,95155.16
2023-04-16T18:23:37.429Z,95166.03
2023-04-16T18:26:03.807Z,95164.38
2023-04-16T18:28:30.720Z,95171.31
2023-04-16T18:30:59.150Z,95173.09
2023-04-16T18:33:50.062Z,95176.88
2023-04-16T18:36:12.867Z,95164.53
2023-04-16T18:38:49.486Z,95163.88
2023-04-16T18:41:19.647Z,95163.22
2023-04-16T18:43:46.122Z,95170.09
2023-04-16T18:46:12.652Z,95184.44
2023-04-16T18:48:39.073Z,95174.81
2023-04-16T18:51:05.835Z,95176.63
2023-04-16T18:53:32.174Z,95180.91
2023-04-16T18:55:58.665Z,95185.19
2023-04-16T18:58:25.081Z,95184.66
2023-04-16T19:00:53.457Z,95181.91
2023-04-16T19:03:19.947Z,95171.81
2023-04-16T19:05:46.618Z,95180.59
2023-04-16T19:08:13.331Z,95180.25
2023-04-16T19:10:39.675Z,95178.47
2023-04-16T19:13:07.019Z,95191.47
2023-04-16T19:15:34.908Z,95183.06
2023-04-16T19:18:01.533Z,95185.03
2023-04-16T19:20:27.973Z,95187.84
2023-04-16T19:22:54.300Z,95194.06
2023-04-16T19:25:20.784Z,95189.81
2023-04-16T19:27:47.294Z,95187.31
2023-04-16T19:30:13.870Z,95183.19
2023-04-16T19:32:42.559Z,95185.00
2023-04-16T19:35:08.969Z,95187.47
2023-04-16T19:37:35.576Z,95192.41
2023-04-16T19:40:02.033Z,95192.88
2023-04-16T19:42:30.529Z,95189.56
2023-04-16T19:44:56.919Z,95191.38
2023-04-16T19:47:23.304Z,95187.78
2023-04-16T19:49:50.000Z,95191.06
2023-04-16T19:52:16.711Z,95199.59
2023-04-16T19:54:43.247Z,95197.94
2023-04-16T19:57:09.666Z,95191.69
2023-04-16T19:59:36.350Z,95193.50
2023-04-16T20:02:02.876Z,95194.63
2023-04-16T20:04:30.897Z,95194.63
2023-04-16T20:06:57.653Z,95195.47
2023-04-16T20:09:27.909Z,95196.31
2023-04-16T20:11:56.552Z,95183.25
2023-04-16T20:14:23.131Z,95183.13
2023-04-16T20:16:49.637Z,95180.50
2023-04-16T20:19:18.181Z,95179.50
2023-04-16T20:21:44.645Z,95178.84
2023-04-16T20:24:11.314Z,95175.22
2023-04-16T20:26:38.234Z,95178.66
2023-04-16T20:29:06.782Z,95182.13
2023-04-16T20:31:33.271Z,95182.13
2023-04-16T20:35:01.099Z,95180.50
2023-04-16T20:36:47.771Z,95176.88
2023-04-16T20:39:14.896Z,95176.88
2023-04-16T20:41:41.344Z,95183.81
2023-04-16T20:44:07.787Z,95176.56
2023-04-16T20:46:37.586Z,95179.34
2023-04-16T20:49:05.247Z,95172.59
2023-04-16T20:51:32.022Z,95171.59
2023-04-16T20:53:58.562Z,95161.88
2023-04-16T20:56:25.080Z,95162.84
2023-04-16T20:58:51.609Z,95165.50
2023-04-16T21:01:18.385Z,95151.81
2023-04-16T21:03:45.501Z,95157.59
2023-04-16T21:06:12.108Z,95149.84
2023-04-16T21:08:38.827Z,95142.13
2023-04-16T21:11:05.589Z,95146.56
2023-04-16T21:13:32.519Z,95148.22
2023-04-16T21:16:01.487Z,95149.19
2023-04-16T21:18:30.785Z,95145.59
2023-04-16T21:20:57.709Z,95143.91
2023-04-16T21:23:24.344Z,95145.59
2023-04-16T21:25:53.470Z,95142.28
2023-04-16T21:28:19.986Z,95142.94
2023-04-16T21:30:46.664Z,95146.56
2023-04-16T21:33:15.655Z,95149.19
2023-04-16T21:35:42.054Z,95139.94
2023-04-16T21:38:08.500Z,95146.50
2023-04-16T21:40:34.890Z,95139.91
2023-04-16T21:43:01.276Z,95143.53
2023-04-16T21:45:29.389Z,95142.53
2023-04-16T21:47:56.879Z,95141.41
2023-04-16T21:50:25.580Z,95146.84
2023-04-16T21:52:52.238Z,95145.19
2023-04-16T21:55:18.891Z,95144.47
2023-04-16T21:57:45.252Z,95140.88
2023-04-16T22:00:11.614Z,95141.38
2023-04-16T22:02:38.245Z,95144.19
2023-04-16T22:05:04.659Z,95136.41
2023-04-16T22:07:31.044Z,95136.41
2023-04-16T22:09:57.475Z,95143.44
2023-04-16T22:12:23.873Z,95134.28
2023-04-16T22:17:22.123Z,95141.47
2023-04-16T22:19:48.492Z,95136.91
2023-04-16T22:22:14.893Z,95132.44
2023-04-16T22:24:41.270Z,95136.75
2023-04-16T22:27:07.679Z,95135.59
2023-04-16T22:29:34.039Z,95137.56
2023-04-16T22:32:00.995Z,95133.94
2023-04-16T22:34:28.519Z,95130.00
2023-04-16T22:36:55.149Z,95124.91
2023-04-16T22:39:21.585Z,95121.09
2023-04-16T22:41:48.337Z,95119.81
2023-04-16T22:44:16.897Z,95120.47
2023-04-16T22:46:44.408Z,95124.06
2023-04-16T22:49:11.107Z,95123.09
2023-04-16T22:51:38.194Z,95111.91
2023-04-16T22:54:04.524Z,95120.47
2023-04-16T22:56:30.883Z,95115.34
2023-04-16T22:58:57.577Z,95114.53
2023-04-16T23:01:25.377Z,95119.81
2023-04-16T23:03:51.908Z,95112.56
2023-04-16T23:06:18.553Z,95116.78
2023-04-16T23:08:45.098Z,95107.78
2023-04-16T23:11:11.875Z,95111.25
2023-04-16T23:13:38.376Z,95104.59
2023-04-16T23:16:04.922Z,95101.31
2023-04-16T23:18:31.375Z,95096.03
2023-04-16T23:20:57.931Z,95099.63
2023-04-16T23:23:24.514Z,95094.69
2023-04-16T23:25:51.109Z,95098.31
2023-04-16T23:28:17.543Z,95094.84
2023-04-16T23:30:43.975Z,95098.47
2023-04-16T23:33:10.354Z,95093.38
2023-04-16T23:35:39.017Z,95092.19
2023-04-16T23:38:05.515Z,95087.78
2023-04-16T23:40:31.905Z,95091.91
2023-04-16T23:42:58.294Z,95082.50
2023-04-16T23:45:24.728Z,95087.78
2023-04-16T23:47:51.177Z,95086.94
2023-04-16T23:50:17.610Z,95080.88
2023-04-16T23:52:44.312Z,95082.50
2023-04-16T23:55:11.570Z,95083.34
2023-04-16T23:57:37.946Z,95084.31
